TimeAKST,TemperatureF,Dew PointF,Humidity,Sea Level PressureIn,VisibilityMPH,Wind Direction,Wind SpeedMPH,Gust SpeedMPH,PrecipitationIn,Events,Conditions,WindDirDegrees,DateUTC
12:53 AM,28.0,24.1,85,29.99,10.0,Calm,Calm,-,N/A,,Partly Cloudy,0,2013-03-03 09:53:00
1:53 AM,28.9,24.1,82,29.99,10.0,Calm,Calm,-,N/A,,Partly Cloudy,0,2013-03-03 10:53:00
3:53 AM,34.0,26.1,73,30.00,10.0,Calm,Calm,-,N/A,,Clear,0,2013-03-03 12:53:00
4:53 AM,39.0,27.0,62,30.01,10.0,ENE,13.8,-,N/A,,Mostly Cloudy,70,2013-03-03 13:53:00
5:53 AM,39.0,27.0,62,30.03,10.0,ENE,12.7,-,N/A,,Scattered Clouds,60,2013-03-03 14:53:00
6:53 AM,39.9,26.1,58,30.03,10.0,ENE,17.3,-,N/A,,Partly Cloudy,60,2013-03-03 15:53:00
7:53 AM,39.9,27.0,60,30.05,10.0,NE,11.5,-,N/A,,Clear,50,2013-03-03 16:53:00
8:53 AM,39.0,27.0,62,30.07,10.0,ENE,9.2,-,N/A,,Partly Cloudy,70,2013-03-03 17:53:00
9:53 AM,39.0,28.0,65,30.09,10.0,ENE,13.8,-,N/A,,Partly Cloudy,60,2013-03-03 18:53:00
10:53 AM,39.9,27.0,60,30.11,10.0,ENE,17.3,-,N/A,,Clear,70,2013-03-03 19:53:00
11:53 AM,41.0,27.0,57,30.14,10.0,ENE,13.8,-,N/A,,Partly Cloudy,70,2013-03-03 20:53:00
12:53 PM,39.9,28.0,63,30.17,10.0,East,16.1,24.2,N/A,,Scattered Clouds,90,2013-03-03 21:53:00
1:53 PM,39.9,28.0,63,30.17,10.0,East,16.1,26.5,N/A,,Scattered Clouds,90,2013-03-03 22:53:00
2:53 PM,39.9,28.0,63,30.18,10.0,ENE,13.8,-,N/A,,Overcast,70,2013-03-03 23:53:00
3:53 PM,39.9,28.0,63,30.20,10.0,ENE,11.5,-,N/A,,Overcast,70,2013-03-04 00:53:00
4:53 PM,39.9,28.9,65,30.21,10.0,ENE,15.0,-,N/A,,Overcast,70,2013-03-04 01:53:00
5:53 PM,39.9,30.0,68,30.23,10.0,East,13.8,-,N/A,,Overcast,80,2013-03-04 02:53:00
6:53 PM,39.9,28.9,65,30.26,10.0,East,12.7,-,N/A,,Mostly Cloudy,80,2013-03-04 03:53:00
7:53 PM,39.9,28.9,65,30.27,10.0,East,11.5,-,N/A,,Clear,80,2013-03-04 04:53:00
8:53 PM,39.9,30.9,70,30.29,10.0,Variable,3.5,-,N/A,,Scattered Clouds,0,2013-03-04 05:53:00
9:53 PM,39.0,30.9,73,30.31,10.0,NNW,3.5,-,N/A,,Clear,330,2013-03-04 06:53:00
10:28 PM,41.0,30.2,65,30.32,10.0,East,8.1,16.1,N/A,,Overcast,80,2013-03-04 07:28:00
10:35 PM,41.0,30.2,65,30.31,10.0,SSE,9.2,-,N/A,,Overcast,150,2013-03-04 07:35:00
10:53 PM,41.0,30.0,65,30.32,10.0,South,4.6,-,N/A,,Mostly Cloudy,170,2013-03-04 07:53:00
11:53 PM,39.9,28.9,65,30.33,10.0,Calm,Calm,-,N/A,,Clear,0,2013-03-04 08:53:00